createdAt,value
2024-04-10T00:01:33.788Z,69.70
2024-04-10T00:04:04.238Z,69.80
2024-04-10T00:06:34.826Z,69.70
2024-04-10T00:09:05.178Z,69.60
2024-04-10T00:11:35.833Z,69.70
2024-04-10T00:14:06.347Z,69.60
2024-04-10T00:16:36.777Z,69.60
2024-04-10T00:19:09.318Z,69.50
2024-04-10T00:21:39.915Z,69.30
2024-04-10T00:24:10.375Z,69.20
2024-04-10T00:26:40.847Z,70.00
2024-04-10T00:29:11.310Z,69.00
2024-04-10T00:31:41.817Z,69.20
2024-04-10T00:34:13.314Z,69.30
2024-04-10T00:36:44.030Z,69.30
2024-04-10T00:39:14.529Z,69.30
2024-04-10T00:41:44.982Z,69.20
2024-04-10T00:44:15.370Z,69.10
2024-04-10T00:46:48.816Z,69.00
2024-04-10T00:49:19.637Z,69.00
2024-04-10T00:51:50.157Z,69.00
2024-04-10T00:54:23.007Z,68.90
2024-04-10T00:56:53.718Z,68.90
2024-04-10T00:59:24.327Z,68.80
2024-04-10T01:01:55.045Z,68.70
2024-04-10T01:04:26.647Z,68.60
2024-04-10T01:06:57.154Z,68.60
2024-04-10T01:09:27.896Z,68.50
2024-04-10T01:11:58.739Z,68.50
2024-04-10T01:14:29.370Z,68.40
2024-04-10T01:17:00.478Z,68.30
2024-04-10T01:19:31.240Z,68.30
2024-04-10T01:22:02.096Z,68.10
2024-04-10T01:24:32.506Z,68.10
2024-04-10T01:27:03.207Z,68.10
2024-04-10T01:29:33.964Z,68.10
2024-04-10T01:32:05.272Z,68.10
2024-04-10T01:34:36.157Z,68.00
2024-04-10T01:37:07.325Z,67.90
2024-04-10T01:39:38.525Z,67.70
2024-04-10T01:42:09.265Z,67.70
2024-04-10T01:44:39.800Z,67.80
2024-04-10T01:47:10.996Z,67.70
2024-04-10T01:49:41.740Z,67.80
2024-04-10T01:52:12.210Z,67.80
2024-04-10T01:54:42.662Z,67.70
2024-04-10T01:57:13.673Z,67.70
2024-04-10T01:59:44.420Z,67.60
2024-04-10T02:02:15.729Z,67.70
2024-04-10T02:04:46.197Z,67.60
2024-04-10T02:07:16.992Z,67.60
2024-04-10T02:09:47.368Z,67.50
2024-04-10T02:12:18.063Z,67.40
2024-04-10T02:14:48.503Z,67.40
2024-04-10T02:17:19.017Z,67.40
2024-04-10T02:19:49.445Z,67.50
2024-04-10T02:22:20.369Z,67.60
2024-04-10T02:24:51.159Z,67.60
2024-04-10T02:27:21.727Z,67.60
2024-04-10T02:29:52.078Z,67.60
2024-04-10T02:32:22.654Z,67.60
2024-04-10T02:34:53.244Z,67.70
2024-04-10T02:37:23.939Z,67.60
2024-04-10T02:39:54.946Z,67.60
2024-04-10T02:42:25.425Z,67.60
2024-04-10T02:44:56.391Z,67.50
2024-04-10T02:47:27.582Z,67.60
2024-04-10T02:49:58.271Z,67.60
2024-04-10T02:52:28.895Z,67.50
2024-04-10T02:54:59.418Z,67.50
2024-04-10T02:57:30.252Z,67.60
2024-04-10T03:00:01.256Z,67.90
2024-04-10T03:02:35.513Z,67.90
2024-04-10T03:05:06.306Z,67.90
2024-04-10T03:07:37.109Z,67.90
2024-04-10T03:10:07.802Z,67.80
2024-04-10T03:12:38.285Z,67.60
2024-04-10T03:15:10.055Z,67.50
2024-04-10T03:17:41.050Z,67.40
2024-04-10T03:20:12.105Z,67.40
2024-04-10T03:22:43.557Z,67.30
2024-04-10T03:25:13.874Z,67.30
2024-04-10T03:27:47.524Z,67.40
2024-04-10T03:30:18.008Z,67.50
2024-04-10T03:32:49.314Z,67.50
2024-04-10T03:35:20.003Z,67.60
2024-04-10T03:37:52.499Z,67.60
2024-04-10T03:40:24.344Z,67.60
2024-04-10T03:42:56.734Z,67.60
2024-04-10T03:45:27.159Z,67.60
2024-04-10T03:47:57.834Z,67.60
2024-04-10T03:50:28.306Z,67.50
2024-04-10T03:52:59.380Z,67.60
2024-04-10T03:55:30.367Z,67.60
2024-04-10T03:58:01.359Z,67.70
2024-04-10T04:00:33.403Z,67.70
2024-04-10T04:03:04.215Z,67.60
2024-04-10T04:05:34.998Z,67.70
2024-04-10T04:08:05.714Z,67.60
2024-04-10T04:10:36.129Z,67.60
2024-04-10T04:13:06.787Z,67.50
2024-04-10T04:15:37.253Z,67.50
2024-04-10T04:18:07.915Z,67.40
2024-04-10T04:20:38.653Z,67.40
2024-04-10T04:23:09.261Z,67.30
2024-04-10T04:25:39.682Z,67.30
2024-04-10T04:28:10.149Z,67.30
2024-04-10T04:30:40.489Z,67.30
2024-04-10T04:33:11.995Z,67.30
2024-04-10T04:35:42.692Z,68.00
2024-04-10T04:38:14.172Z,67.20
2024-04-10T04:40:44.630Z,67.10
2024-04-10T04:43:16.474Z,67.10
2024-04-10T04:45:47.133Z,67.30
2024-04-10T04:48:18.188Z,67.60
2024-04-10T04:50:51.158Z,67.80
2024-04-10T04:53:22.564Z,67.80
2024-04-10T04:55:52.982Z,67.90
2024-04-10T04:58:27.195Z,67.90
2024-04-10T05:01:00.341Z,67.90
2024-04-10T05:03:48.899Z,67.80
2024-04-10T05:06:21.249Z,67.90
2024-04-10T05:08:52.867Z,68.00
2024-04-10T05:11:24.163Z,68.10
2024-04-10T05:13:55.577Z,68.00
2024-04-10T05:16:26.158Z,67.80
2024-04-10T05:18:56.640Z,67.80
2024-04-10T05:21:27.449Z,67.80
2024-04-10T05:23:57.946Z,67.90
2024-04-10T05:26:28.350Z,67.80
2024-04-10T05:28:58.871Z,67.80
2024-04-10T05:31:29.372Z,67.70
2024-04-10T05:33:59.844Z,67.70
2024-04-10T05:36:30.214Z,67.80
2024-04-10T05:39:04.569Z,67.80
2024-04-10T05:41:35.277Z,67.90
2024-04-10T05:44:05.802Z,68.00
2024-04-10T05:46:36.487Z,68.10
2024-04-10T05:49:08.546Z,68.10
2024-04-10T05:51:39.361Z,68.30
2024-04-10T05:54:10.735Z,68.30
2024-04-10T05:56:41.134Z,68.30
2024-04-10T05:59:14.262Z,68.30
2024-04-10T06:01:45.280Z,68.30
2024-04-10T06:04:17.448Z,68.30
2024-04-10T06:06:47.855Z,68.30
2024-04-10T06:09:18.351Z,68.40
2024-04-10T06:11:48.851Z,68.40
2024-04-10T06:14:19.375Z,68.40
2024-04-10T06:16:50.251Z,68.50
2024-04-10T06:19:22.514Z,68.50
2024-04-10T06:21:52.933Z,68.50
2024-04-10T06:24:24.183Z,68.50
2024-04-10T06:26:54.855Z,68.50
2024-04-10T06:29:25.291Z,68.50
2024-04-10T06:31:55.859Z,68.50
2024-04-10T06:34:26.299Z,68.50
2024-04-10T06:36:56.762Z,68.60
2024-04-10T06:39:27.162Z,68.60
2024-04-10T06:41:57.707Z,68.60
2024-04-10T06:44:28.169Z,68.60
2024-04-10T06:46:58.925Z,68.70
2024-04-10T06:49:32.195Z,68.80
2024-04-10T06:52:02.884Z,68.80
2024-04-10T06:54:33.277Z,68.80
2024-04-10T06:57:03.821Z,68.90
2024-04-10T06:59:35.684Z,68.80
2024-04-10T07:02:07.238Z,69.60
2024-04-10T07:04:38.026Z,68.90
2024-04-10T07:07:09.415Z,68.90
2024-04-10T07:09:39.929Z,69.00
2024-04-10T07:12:10.764Z,69.00
2024-04-10T07:14:43.252Z,69.00
2024-04-10T07:17:13.820Z,68.90
2024-04-10T07:19:44.206Z,69.00
2024-04-10T07:22:14.774Z,69.00
2024-04-10T07:24:45.142Z,68.90
2024-04-10T07:27:15.706Z,68.90
2024-04-10T07:29:49.330Z,68.90
2024-04-10T07:32:20.657Z,68.70
2024-04-10T07:34:51.480Z,68.70
2024-04-10T07:37:22.179Z,68.80
2024-04-10T07:39:52.686Z,68.70
2024-04-10T07:42:23.150Z,68.70
2024-04-10T07:44:56.041Z,68.80
2024-04-10T07:47:26.787Z,68.80
2024-04-10T07:49:57.237Z,68.80
2024-04-10T07:52:28.132Z,68.70
2024-04-10T07:54:58.603Z,68.20
2024-04-10T07:57:29.410Z,68.00
2024-04-10T08:00:00.360Z,67.90
2024-04-10T08:02:30.899Z,67.80
2024-04-10T08:05:02.363Z,67.70
2024-04-10T08:07:32.858Z,67.70
2024-04-10T08:10:03.250Z,67.60
2024-04-10T08:12:33.857Z,67.50
2024-04-10T08:15:04.496Z,67.50
2024-04-10T08:17:36.277Z,67.50
2024-04-10T08:20:07.089Z,67.60
2024-04-10T08:22:37.727Z,67.60
2024-04-10T08:25:08.670Z,67.50
2024-04-10T08:27:39.281Z,67.40
2024-04-10T08:30:10.400Z,67.20
2024-04-10T08:32:41.215Z,67.20
2024-04-10T08:35:13.291Z,67.20
2024-04-10T08:37:43.969Z,67.80
2024-04-10T08:40:14.805Z,67.10
2024-04-10T08:42:48.718Z,67.10
2024-04-10T08:45:23.806Z,67.10
2024-04-10T08:47:54.893Z,67.10
2024-04-10T08:50:27.543Z,67.10
2024-04-10T08:52:58.088Z,67.10
2024-04-10T08:55:30.276Z,67.10
2024-04-10T08:58:00.857Z,67.20
2024-04-10T09:00:32.296Z,67.20
2024-04-10T09:03:02.995Z,67.20
2024-04-10T09:05:33.378Z,67.20
2024-04-10T09:08:04.269Z,67.20
2024-04-10T09:10:34.978Z,67.20
2024-04-10T09:13:13.421Z,67.20
2024-04-10T09:15:43.786Z,67.20
2024-04-10T09:18:14.250Z,67.20
2024-04-10T09:20:44.819Z,67.30
2024-04-10T09:23:15.315Z,67.30
2024-04-10T09:25:46.606Z,67.30
2024-04-10T09:28:18.461Z,67.30
2024-04-10T09:30:48.866Z,67.30
2024-04-10T09:33:22.858Z,67.30
2024-04-10T09:35:54.966Z,67.30
2024-04-10T09:38:32.110Z,67.30
2024-04-10T09:41:08.121Z,67.30
2024-04-10T09:43:42.421Z,67.30
2024-04-10T09:46:13.135Z,67.40
2024-04-10T09:48:50.532Z,67.20
2024-04-10T09:51:25.772Z,67.30
2024-04-10T09:53:57.221Z,67.30
2024-04-10T09:56:29.310Z,67.20
2024-04-10T09:59:00.308Z,67.20
2024-04-10T10:01:32.712Z,67.20
2024-04-10T10:04:03.454Z,67.30
2024-04-10T10:06:34.965Z,67.30
2024-04-10T10:09:05.578Z,67.30
2024-04-10T10:11:36.349Z,67.40
2024-04-10T10:14:09.782Z,67.30
2024-04-10T10:16:40.493Z,67.30
2024-04-10T10:19:22.136Z,67.40
2024-04-10T10:22:05.341Z,67.40
2024-04-10T10:24:36.601Z,67.30
2024-04-10T10:27:07.367Z,67.50
2024-04-10T10:29:39.189Z,67.50
2024-04-10T10:32:12.018Z,67.50
2024-04-10T10:34:42.797Z,67.40
2024-04-10T10:37:15.219Z,67.50
2024-04-10T10:39:46.878Z,67.40
2024-04-10T10:42:17.330Z,67.40
2024-04-10T10:44:47.747Z,67.50
2024-04-10T10:47:18.409Z,67.50
2024-04-10T10:49:48.885Z,67.50
2024-04-10T10:52:19.524Z,67.60
2024-04-10T10:54:49.898Z,67.60
2024-04-10T10:57:21.553Z,67.60
2024-04-10T10:59:52.023Z,67.60
2024-04-10T11:02:23.556Z,67.60
2024-04-10T11:04:56.368Z,67.60
2024-04-10T11:07:27.837Z,67.60
2024-04-10T11:10:07.958Z,67.60
2024-04-10T11:12:38.885Z,67.60
2024-04-10T11:15:14.385Z,67.60
2024-04-10T11:17:45.364Z,67.60
2024-04-10T11:20:15.869Z,67.60
2024-04-10T11:22:46.473Z,67.70
2024-04-10T11:25:17.094Z,67.50
2024-04-10T11:27:47.456Z,67.50
2024-04-10T11:30:18.360Z,67.50
2024-04-10T11:32:48.916Z,67.40
2024-04-10T11:35:19.569Z,67.40
2024-04-10T11:37:53.644Z,67.30
2024-04-10T11:40:25.164Z,67.30
2024-04-10T11:42:56.327Z,67.30
2024-04-10T11:45:26.723Z,67.30
2024-04-10T11:47:58.525Z,67.30
2024-04-10T11:50:29.284Z,67.30
2024-04-10T11:52:59.689Z,67.30
2024-04-10T11:55:31.691Z,67.30
2024-04-10T11:58:02.611Z,67.30
2024-04-10T12:00:33.870Z,67.30
2024-04-10T12:03:05.699Z,67.40
2024-04-10T12:05:39.383Z,67.40
2024-04-10T12:08:10.817Z,67.40
2024-04-10T12:10:42.532Z,67.30
2024-04-10T12:13:13.241Z,67.30
2024-04-10T12:15:44.508Z,67.40
2024-04-10T12:18:15.106Z,67.30
2024-04-10T12:20:45.922Z,67.30
2024-04-10T12:23:16.444Z,67.30
2024-04-10T12:25:47.060Z,67.30
2024-04-10T12:28:17.518Z,67.30
2024-04-10T12:30:51.124Z,67.30
2024-04-10T12:33:22.075Z,67.40
2024-04-10T12:36:10.810Z,67.40
2024-04-10T12:38:41.245Z,67.40
2024-04-10T12:41:11.740Z,67.40
2024-04-10T12:43:45.601Z,67.40
2024-04-10T12:46:18.221Z,67.40
2024-04-10T12:48:48.896Z,67.40
2024-04-10T12:51:19.894Z,67.40
2024-04-10T12:53:50.528Z,67.30
2024-04-10T12:56:21.057Z,68.10
2024-04-10T12:58:51.957Z,67.30
2024-04-10T13:01:22.711Z,67.40
2024-04-10T13:03:57.918Z,67.40
2024-04-10T13:06:28.528Z,67.30
2024-04-10T13:08:58.971Z,67.40
2024-04-10T13:11:30.921Z,67.30
2024-04-10T13:14:01.387Z,67.30
2024-04-10T13:16:32.002Z,67.30
2024-04-10T13:19:02.611Z,67.20
2024-04-10T13:21:33.302Z,67.20
2024-04-10T13:24:03.809Z,67.20
2024-04-10T13:26:34.696Z,67.30
2024-04-10T13:29:05.100Z,67.30
2024-04-10T13:31:35.587Z,67.30
2024-04-10T13:34:06.967Z,67.30
2024-04-10T13:36:37.560Z,67.30
2024-04-10T13:39:08.037Z,67.40
2024-04-10T13:41:38.624Z,67.40
2024-04-10T13:44:09.723Z,67.40
2024-04-10T13:46:43.317Z,67.30
2024-04-10T13:49:17.158Z,67.30
2024-04-10T13:51:47.934Z,67.30
2024-04-10T13:54:18.379Z,67.30
2024-04-10T13:56:48.956Z,67.20
2024-04-10T13:59:19.369Z,67.20
2024-04-10T14:01:51.220Z,67.30
2024-04-10T14:04:22.137Z,67.20
2024-04-10T14:06:53.122Z,67.20
2024-04-10T14:09:23.503Z,67.20
2024-04-10T14:11:54.289Z,67.20
2024-04-10T14:14:24.805Z,67.10
2024-04-10T14:17:00.375Z,67.10
2024-04-10T14:19:32.986Z,67.10
2024-04-10T14:22:03.406Z,67.10
2024-04-10T14:24:34.739Z,67.00
2024-04-10T14:27:05.383Z,66.90
2024-04-10T14:29:37.083Z,66.90
2024-04-10T14:32:08.378Z,66.80
2024-04-10T14:34:38.925Z,66.80
2024-04-10T14:37:11.320Z,66.70
2024-04-10T14:39:41.679Z,66.70
2024-04-10T14:42:12.171Z,66.60
2024-04-10T14:44:51.143Z,66.60
2024-04-10T14:47:22.072Z,66.60
2024-04-10T14:49:55.648Z,66.60
2024-04-10T14:52:26.653Z,66.50
2024-04-10T14:54:57.040Z,66.50
2024-04-10T14:57:27.492Z,66.40
2024-04-10T14:59:58.147Z,66.40
2024-04-10T15:04:50.784Z,66.40
2024-04-10T15:07:21.183Z,66.50
2024-04-10T15:09:52.076Z,66.40
2024-04-10T15:12:22.685Z,66.30
2024-04-10T15:14:53.105Z,66.30
2024-04-10T15:17:23.763Z,66.30
2024-04-10T15:19:54.307Z,66.30
2024-04-10T15:22:24.803Z,66.30
2024-04-10T15:24:55.543Z,66.30
2024-04-10T15:27:26.105Z,66.20
2024-04-10T15:29:56.624Z,66.20
2024-04-10T15:32:27.704Z,66.20
2024-04-10T15:34:58.314Z,66.20
2024-04-10T15:37:29.519Z,66.20
2024-04-10T15:40:00.560Z,66.20
2024-04-10T15:42:31.327Z,66.20
2024-04-10T15:45:05.556Z,66.20
2024-04-10T15:47:37.631Z,66.20
2024-04-10T15:50:08.749Z,66.20
2024-04-10T15:52:49.974Z,66.10
2024-04-10T15:55:21.799Z,66.10
2024-04-10T15:57:52.150Z,66.10
2024-04-10T16:00:22.656Z,66.10
2024-04-10T16:02:55.555Z,66.10
2024-04-10T16:05:31.103Z,66.10
2024-04-10T16:08:04.157Z,66.00
2024-04-10T16:10:40.271Z,66.00
2024-04-10T16:13:12.010Z,66.00
2024-04-10T16:15:42.357Z,66.00
2024-04-10T16:18:14.868Z,66.00
2024-04-10T16:20:45.848Z,66.00
2024-04-10T16:23:17.674Z,65.90
2024-04-10T16:25:48.226Z,65.90
2024-04-10T16:28:18.704Z,65.90
2024-04-10T16:30:49.241Z,65.90
2024-04-10T16:33:20.325Z,65.90
2024-04-10T16:35:51.097Z,65.90
2024-04-10T16:38:27.575Z,65.90
2024-04-10T16:41:02.697Z,65.80
2024-04-10T16:43:37.376Z,65.80
2024-04-10T16:46:09.701Z,65.80
2024-04-10T16:48:40.537Z,65.90
2024-04-10T16:51:14.771Z,65.90
2024-04-10T16:53:46.197Z,65.80
2024-04-10T16:56:20.782Z,65.80
2024-04-10T16:58:51.318Z,65.80
2024-04-10T17:01:22.039Z,65.80
2024-04-10T17:03:52.646Z,65.80
2024-04-10T17:06:23.143Z,65.80
2024-04-10T17:08:54.007Z,65.80
2024-04-10T17:11:24.564Z,65.80
2024-04-10T17:13:54.997Z,65.80
2024-04-10T17:16:25.486Z,65.80
2024-04-10T17:19:13.717Z,65.70
2024-04-10T17:21:59.867Z,65.70
2024-04-10T17:24:30.316Z,65.70
2024-04-10T17:27:01.641Z,65.80
2024-04-10T17:29:32.569Z,65.70
2024-04-10T17:32:03.342Z,65.70
2024-04-10T17:34:34.008Z,65.70
2024-04-10T17:37:04.722Z,65.70
2024-04-10T17:39:43.213Z,65.60
2024-04-10T17:42:13.804Z,65.60
2024-04-10T17:44:44.207Z,65.60
2024-04-10T17:47:14.639Z,65.70
2024-04-10T17:49:45.002Z,65.70
2024-04-10T17:52:15.693Z,65.70
2024-04-10T17:54:46.113Z,65.60
2024-04-10T17:57:16.740Z,65.60
2024-04-10T17:59:47.146Z,65.70
2024-04-10T18:02:18.284Z,65.60
2024-04-10T18:04:51.694Z,65.60
2024-04-10T18:07:22.109Z,65.60
2024-04-10T18:09:52.435Z,65.70
2024-04-10T18:12:23.569Z,65.60
2024-04-10T18:14:54.035Z,65.60
2024-04-10T18:17:24.915Z,65.60
2024-04-10T18:19:55.451Z,65.60
2024-04-10T18:22:26.371Z,65.60
2024-04-10T18:24:57.247Z,65.60
2024-04-10T18:27:29.637Z,65.60
2024-04-10T18:30:01.482Z,65.60
2024-04-10T18:32:32.313Z,65.60
2024-04-10T18:35:02.844Z,65.60
2024-04-10T18:37:35.205Z,65.60
2024-04-10T18:40:07.341Z,65.60
2024-04-10T18:42:38.547Z,65.60
2024-04-10T18:45:09.682Z,66.40
2024-04-10T18:47:40.554Z,65.60
2024-04-10T18:50:11.100Z,65.60
2024-04-10T18:52:41.754Z,65.60
2024-04-10T18:55:12.106Z,65.60
2024-04-10T18:57:42.707Z,65.60
2024-04-10T19:00:13.617Z,65.60
2024-04-10T19:02:45.688Z,65.60
2024-04-10T19:05:16.246Z,65.60
2024-04-10T19:07:46.780Z,66.30
2024-04-10T19:10:17.615Z,65.60
2024-04-10T19:12:50.451Z,65.60
2024-04-10T19:15:22.367Z,65.60
2024-04-10T19:17:52.825Z,65.70
2024-04-10T19:20:23.308Z,65.60
2024-04-10T19:22:53.679Z,65.60
2024-04-10T19:25:24.048Z,65.60
2024-04-10T19:27:54.443Z,65.60
2024-04-10T19:30:24.830Z,65.60
2024-04-10T19:32:55.350Z,65.60
2024-04-10T19:35:25.909Z,65.60
2024-04-10T19:37:56.336Z,65.60
2024-04-10T19:40:26.713Z,65.60
2024-04-10T19:42:57.097Z,65.50
2024-04-10T19:45:27.645Z,65.50
2024-04-10T19:47:58.204Z,65.50
2024-04-10T19:50:29.370Z,65.60
2024-04-10T19:53:00.296Z,65.50
2024-04-10T19:55:30.711Z,65.60
2024-04-10T19:58:01.099Z,65.60
2024-04-10T20:00:31.729Z,65.60
2024-04-10T20:03:06.850Z,65.60
2024-04-10T20:05:38.615Z,65.80
2024-04-10T20:08:10.175Z,65.90
2024-04-10T20:10:40.604Z,65.70
2024-04-10T20:13:11.028Z,65.70
2024-04-10T20:15:41.533Z,65.70
2024-04-10T20:18:12.260Z,65.60
2024-04-10T20:20:42.956Z,65.70
2024-04-10T20:23:13.431Z,65.80
2024-04-10T20:25:43.830Z,65.80
2024-04-10T20:28:14.245Z,65.90
2024-04-10T20:30:44.725Z,66.00
2024-04-10T20:33:15.388Z,66.70
2024-04-10T20:35:45.900Z,66.00
2024-04-10T20:38:19.731Z,66.00
2024-04-10T20:40:50.129Z,66.10
2024-04-10T20:43:20.974Z,66.10
2024-04-10T20:45:58.732Z,66.20
2024-04-10T20:48:32.773Z,66.10
2024-04-10T20:51:12.744Z,66.30
2024-04-10T20:53:45.706Z,66.20
2024-04-10T20:56:23.906Z,66.30
2024-04-10T20:58:54.452Z,66.30
2024-04-10T21:01:24.945Z,66.30
2024-04-10T21:03:56.169Z,66.30
2024-04-10T21:06:26.257Z,66.30
2024-04-10T21:09:14.583Z,66.30
2024-04-10T21:12:02.967Z,66.40
2024-04-10T21:14:51.627Z,66.40
2024-04-10T21:17:40.003Z,66.40
2024-04-10T21:20:29.319Z,66.50
2024-04-10T21:23:17.587Z,66.50
2024-04-10T21:26:05.954Z,66.50
2024-04-10T21:28:54.256Z,66.60
2024-04-10T21:31:42.691Z,66.70
2024-04-10T21:34:31.095Z,66.70
2024-04-10T21:37:19.865Z,66.60
2024-04-10T21:40:08.336Z,66.60
2024-04-10T21:42:56.765Z,66.70
2024-04-10T21:45:45.504Z,66.70
2024-04-10T21:48:33.966Z,66.90
2024-04-10T21:51:22.133Z,67.10
2024-04-10T21:54:11.156Z,67.30
2024-04-10T21:56:59.804Z,67.30
2024-04-10T21:59:50.054Z,67.30
2024-04-10T22:02:40.225Z,67.50
2024-04-10T22:05:29.247Z,67.50
2024-04-10T22:08:20.330Z,67.60
2024-04-10T22:10:52.648Z,67.60
2024-04-10T22:13:23.007Z,67.70
2024-04-10T22:15:53.413Z,67.80
2024-04-10T22:18:41.706Z,67.80
2024-04-10T22:21:30.514Z,67.80
2024-04-10T22:24:07.538Z,68.00
2024-04-10T22:26:37.981Z,68.00
2024-04-10T22:29:08.388Z,68.00
2024-04-10T22:31:38.815Z,68.10
2024-04-10T22:34:09.455Z,68.30
2024-04-10T22:36:40.245Z,68.60
2024-04-10T22:39:11.482Z,68.10
2024-04-10T22:41:41.948Z,67.90
2024-04-10T22:44:16.216Z,67.60
2024-04-10T22:46:46.637Z,67.80
2024-04-10T22:49:16.972Z,67.80
2024-04-10T22:51:47.726Z,68.10
2024-04-10T22:54:18.399Z,68.10
2024-04-10T22:56:49.041Z,68.10
2024-04-10T22:59:19.424Z,68.10
2024-04-10T23:01:50.001Z,68.60
2024-04-10T23:04:20.720Z,68.50
2024-04-10T23:09:24.455Z,68.60
2024-04-10T23:11:54.968Z,68.40
2024-04-10T23:14:25.460Z,68.60
2024-04-10T23:16:55.914Z,68.50
2024-04-10T23:19:27.512Z,68.50
2024-04-10T23:22:00.937Z,68.30
2024-04-10T23:24:31.355Z,68.90
2024-04-10T23:27:01.854Z,68.40
2024-04-10T23:29:32.340Z,69.00
2024-04-10T23:32:03.184Z,68.50
2024-04-10T23:34:33.736Z,68.80
2024-04-10T23:37:04.700Z,68.50
2024-04-10T23:39:35.023Z,68.60
2024-04-10T23:42:05.740Z,68.50
2024-04-10T23:44:36.259Z,68.40
2024-04-10T23:47:06.844Z,68.30
2024-04-10T23:49:37.217Z,68.20
2024-04-10T23:52:08.590Z,68.10
2024-04-10T23:54:39.317Z,68.20
2024-04-10T23:57:09.801Z,68.10
2024-04-10T23:59:40.273Z,68.10
